Terminal Aerodrome Forecast
Issued by NWS Twin Cities, MN

Home | Current Version | Previous Version | Graphics & Text | Print | Product List | Glossary On
Versions: 1 2 3 4 5 6 7 8 9 10 11 12 13 14 15 16 17 18 19 20 21 22 23 24 25 26
000
FTUS43 KMPX 191100 RRA
TAFMSP
TAF
KMSP 191142Z 1912/2018 15010KT P6SM SCT050 OVC150
     FM191600 18013G20KT P6SM BKN030 OVC050
     FM191900 19015G22KT P6SM OVC035
     FM200100 19011KT P6SM VCTS BKN040CB OVC080
     FM200400 22007KT P6SM SCT020 BKN060
     FM201200 29009KT P6SM FEW050 BKN250=

USA.gov is the U.S. government's official web portal to all federal, state and local government web resources and services.